sensor_id;sensor_type;location;lat;lon;timestamp;temperature;humidity
3626;DHT22;1827;50.534;8.316;2022-08-03T00:01:34;16.60;99.90
3626;DHT22;1827;50.534;8.316;2022-08-03T00:04:00;16.60;99.90
3626;DHT22;1827;50.534;8.316;2022-08-03T00:06:26;16.50;99.90
3626;DHT22;1827;50.534;8.316;2022-08-03T00:08:52;16.50;99.90
3626;DHT22;1827;50.534;8.316;2022-08-03T00:11:17;16.40;99.90
3626;DHT22;1827;50.534;8.316;2022-08-03T00:13:43;16.40;99.90
3626;DHT22;1827;50.534;8.316;2022-08-03T00:16:09;16.40;99.90
3626;DHT22;1827;50.534;8.316;2022-08-03T00:18:36;16.40;99.90
3626;DHT22;1827;50.534;8.316;2022-08-03T00:21:03;16.40;99.90
3626;DHT22;1827;50.534;8.316;2022-08-03T00:23:29;16.30;99.90
3626;DHT22;1827;50.534;8.316;2022-08-03T00:25:55;16.30;99.90
3626;DHT22;1827;50.534;8.316;2022-08-03T00:28:21;16.20;99.90
3626;DHT22;1827;50.534;8.316;2022-08-03T00:30:47;16.20;99.90
3626;DHT22;1827;50.534;8.316;2022-08-03T00:33:12;16.20;99.90
3626;DHT22;1827;50.534;8.316;2022-08-03T00:35:38;16.20;99.90
3626;DHT22;1827;50.534;8.316;2022-08-03T00:38:04;16.10;99.90
3626;DHT22;1827;50.534;8.316;2022-08-03T00:40:30;16.10;99.90
3626;DHT22;1827;50.534;8.316;2022-08-03T00:42:58;16.00;99.90
3626;DHT22;1827;50.534;8.316;2022-08-03T00:45:26;15.90;99.90
3626;DHT22;1827;50.534;8.316;2022-08-03T00:47:53;16.00;99.90
3626;DHT22;1827;50.534;8.316;2022-08-03T00:50:20;16.00;99.90
3626;DHT22;1827;50.534;8.316;2022-08-03T00:52:52;15.90;99.90
3626;DHT22;1827;50.534;8.316;2022-08-03T00:55:18;15.90;99.90
3626;DHT22;1827;50.534;8.316;2022-08-03T00:57:44;15.90;99.90
3626;DHT22;1827;50.534;8.316;2022-08-03T01:00:11;15.90;99.90
3626;DHT22;1827;50.534;8.316;2022-08-03T01:02:38;15.90;99.90
3626;DHT22;1827;50.534;8.316;2022-08-03T01:05:05;15.80;99.90
3626;DHT22;1827;50.534;8.316;2022-08-03T01:07:48;15.80;99.90
3626;DHT22;1827;50.534;8.316;2022-08-03T01:10:24;15.70;99.90
3626;DHT22;1827;50.534;8.316;2022-08-03T01:15:35;15.60;99.90
3626;DHT22;1827;50.534;8.316;2022-08-03T01:18:17;15.60;99.90
3626;DHT22;1827;50.534;8.316;2022-08-03T01:20:48;15.50;99.90
3626;DHT22;1827;50.534;8.316;2022-08-03T01:23:43;15.50;99.90
3626;DHT22;1827;50.534;8.316;2022-08-03T01:26:35;15.40;99.90
3626;DHT22;1827;50.534;8.316;2022-08-03T01:31:42;15.40;99.90
3626;DHT22;1827;50.534;8.316;2022-08-03T01:34:12;15.40;99.90
3626;DHT22;1827;50.534;8.316;2022-08-03T01:36:43;15.30;99.90
3626;DHT22;1827;50.534;8.316;2022-08-03T01:39:15;15.30;99.90
3626;DHT22;1827;50.534;8.316;2022-08-03T01:41:48;15.30;99.90
3626;DHT22;1827;50.534;8.316;2022-08-03T01:44:15;15.20;99.90
3626;DHT22;1827;50.534;8.316;2022-08-03T01:46:41;15.20;99.90
3626;DHT22;1827;50.534;8.316;2022-08-03T01:49:10;15.20;99.90
3626;DHT22;1827;50.534;8.316;2022-08-03T01:51:41;15.10;99.90
3626;DHT22;1827;50.534;8.316;2022-08-03T01:54:09;15.10;99.90
3626;DHT22;1827;50.534;8.316;2022-08-03T01:56:37;15.00;99.90
3626;DHT22;1827;50.534;8.316;2022-08-03T01:59:06;15.00;99.90
3626;DHT22;1827;50.534;8.316;2022-08-03T02:01:32;15.00;99.90
3626;DHT22;1827;50.534;8.316;2022-08-03T02:04:00;14.80;99.90
3626;DHT22;1827;50.534;8.316;2022-08-03T02:06:29;14.90;99.90
3626;DHT22;1827;50.534;8.316;2022-08-03T02:08:58;14.90;99.90
3626;DHT22;1827;50.534;8.316;2022-08-03T02:11:25;14.80;99.90
3626;DHT22;1827;50.534;8.316;2022-08-03T02:13:52;14.80;99.90
3626;DHT22;1827;50.534;8.316;2022-08-03T02:16:21;14.80;99.90
3626;DHT22;1827;50.534;8.316;2022-08-03T02:18:47;14.70;99.90
3626;DHT22;1827;50.534;8.316;2022-08-03T02:21:14;14.70;99.90
3626;DHT22;1827;50.534;8.316;2022-08-03T02:23:40;14.70;99.90
3626;DHT22;1827;50.534;8.316;2022-08-03T02:26:10;14.70;99.90
3626;DHT22;1827;50.534;8.316;2022-08-03T02:28:39;14.70;99.90
3626;DHT22;1827;50.534;8.316;2022-08-03T02:31:12;14.70;99.90
3626;DHT22;1827;50.534;8.316;2022-08-03T02:33:42;14.70;99.90
3626;DHT22;1827;50.534;8.316;2022-08-03T02:36:10;14.70;99.90
3626;DHT22;1827;50.534;8.316;2022-08-03T02:38:40;14.60;99.90
3626;DHT22;1827;50.534;8.316;2022-08-03T02:41:14;14.60;99.90
3626;DHT22;1827;50.534;8.316;2022-08-03T02:43:44;14.60;99.90
3626;DHT22;1827;50.534;8.316;2022-08-03T02:46:12;14.50;99.90
3626;DHT22;1827;50.534;8.316;2022-08-03T02:48:40;14.50;99.90
3626;DHT22;1827;50.534;8.316;2022-08-03T02:51:06;14.50;99.90
3626;DHT22;1827;50.534;8.316;2022-08-03T02:53:32;14.50;99.90
3626;DHT22;1827;50.534;8.316;2022-08-03T02:55:59;14.50;99.90
3626;DHT22;1827;50.534;8.316;2022-08-03T02:58:28;14.50;99.90
3626;DHT22;1827;50.534;8.316;2022-08-03T03:00:56;14.50;99.90
3626;DHT22;1827;50.534;8.316;2022-08-03T03:03:22;14.50;99.90
3626;DHT22;1827;50.534;8.316;2022-08-03T03:05:49;14.50;99.90
3626;DHT22;1827;50.534;8.316;2022-08-03T03:08:17;14.40;99.90
3626;DHT22;1827;50.534;8.316;2022-08-03T03:10:44;14.40;99.90
3626;DHT22;1827;50.534;8.316;2022-08-03T03:13:13;14.30;99.90
3626;DHT22;1827;50.534;8.316;2022-08-03T03:15:40;14.30;99.90
3626;DHT22;1827;50.534;8.316;2022-08-03T03:18:06;14.30;99.90
3626;DHT22;1827;50.534;8.316;2022-08-03T03:20:35;14.30;99.90
3626;DHT22;1827;50.534;8.316;2022-08-03T03:23:02;14.30;99.90
3626;DHT22;1827;50.534;8.316;2022-08-03T03:25:33;14.20;99.90
3626;DHT22;1827;50.534;8.316;2022-08-03T03:28:00;14.20;99.90
3626;DHT22;1827;50.534;8.316;2022-08-03T03:30:27;14.10;99.90
3626;DHT22;1827;50.534;8.316;2022-08-03T03:32:53;14.10;99.90
3626;DHT22;1827;50.534;8.316;2022-08-03T03:35:19;14.10;99.90
3626;DHT22;1827;50.534;8.316;2022-08-03T03:37:45;14.00;99.90
3626;DHT22;1827;50.534;8.316;2022-08-03T03:40:11;14.00;99.90
3626;DHT22;1827;50.534;8.316;2022-08-03T03:42:38;14.00;99.90
3626;DHT22;1827;50.534;8.316;2022-08-03T03:45:05;14.00;99.90
3626;DHT22;1827;50.534;8.316;2022-08-03T03:47:32;13.90;99.90
3626;DHT22;1827;50.534;8.316;2022-08-03T03:49:58;13.90;99.90
3626;DHT22;1827;50.534;8.316;2022-08-03T03:52:24;14.00;99.90
3626;DHT22;1827;50.534;8.316;2022-08-03T03:54:50;13.90;99.90
3626;DHT22;1827;50.534;8.316;2022-08-03T03:57:15;13.90;99.90
3626;DHT22;1827;50.534;8.316;2022-08-03T03:59:42;13.90;99.90
3626;DHT22;1827;50.534;8.316;2022-08-03T04:02:09;13.90;99.90
3626;DHT22;1827;50.534;8.316;2022-08-03T04:04:36;13.90;99.90
3626;DHT22;1827;50.534;8.316;2022-08-03T04:07:24;13.90;99.90
3626;DHT22;1827;50.534;8.316;2022-08-03T04:10:14;13.90;99.90
3626;DHT22;1827;50.534;8.316;2022-08-03T04:13:03;14.00;99.90
3626;DHT22;1827;50.534;8.316;2022-08-03T04:15:32;13.90;99.90
3626;DHT22;1827;50.534;8.316;2022-08-03T04:17:58;14.00;99.90
3626;DHT22;1827;50.534;8.316;2022-08-03T04:20:29;14.00;99.90
3626;DHT22;1827;50.534;8.316;2022-08-03T04:22:57;13.90;99.90
3626;DHT22;1827;50.534;8.316;2022-08-03T04:25:30;13.90;99.90
3626;DHT22;1827;50.534;8.316;2022-08-03T04:27:59;13.90;99.90
3626;DHT22;1827;50.534;8.316;2022-08-03T04:30:27;14.00;99.90
3626;DHT22;1827;50.534;8.316;2022-08-03T04:32:57;14.00;99.90
3626;DHT22;1827;50.534;8.316;2022-08-03T04:35:30;14.10;99.90
3626;DHT22;1827;50.534;8.316;2022-08-03T04:38:00;14.20;99.90
3626;DHT22;1827;50.534;8.316;2022-08-03T04:40:30;14.20;99.90
3626;DHT22;1827;50.534;8.316;2022-08-03T04:42:57;14.30;99.90
3626;DHT22;1827;50.534;8.316;2022-08-03T04:45:24;14.30;99.90
3626;DHT22;1827;50.534;8.316;2022-08-03T04:47:51;14.30;99.90
3626;DHT22;1827;50.534;8.316;2022-08-03T04:50:18;14.20;99.90
3626;DHT22;1827;50.534;8.316;2022-08-03T04:53:02;14.20;99.90
3626;DHT22;1827;50.534;8.316;2022-08-03T04:55:30;14.20;99.90
3626;DHT22;1827;50.534;8.316;2022-08-03T04:57:57;14.30;99.90
3626;DHT22;1827;50.534;8.316;2022-08-03T05:00:23;14.30;99.90
3626;DHT22;1827;50.534;8.316;2022-08-03T05:02:49;14.40;99.90
3626;DHT22;1827;50.534;8.316;2022-08-03T05:05:15;14.40;99.90
3626;DHT22;1827;50.534;8.316;2022-08-03T05:07:41;14.50;99.90
3626;DHT22;1827;50.534;8.316;2022-08-03T05:10:09;14.50;99.90
3626;DHT22;1827;50.534;8.316;2022-08-03T05:12:35;14.60;99.90
3626;DHT22;1827;50.534;8.316;2022-08-03T05:15:01;14.70;99.90
3626;DHT22;1827;50.534;8.316;2022-08-03T05:17:27;14.80;99.90
3626;DHT22;1827;50.534;8.316;2022-08-03T05:19:53;14.90;99.90
3626;DHT22;1827;50.534;8.316;2022-08-03T05:22:20;15.00;99.90
3626;DHT22;1827;50.534;8.316;2022-08-03T05:24:47;15.10;99.90
3626;DHT22;1827;50.534;8.316;2022-08-03T05:27:12;15.20;99.90
3626;DHT22;1827;50.534;8.316;2022-08-03T05:29:47;15.30;99.90
3626;DHT22;1827;50.534;8.316;2022-08-03T05:32:14;15.30;99.90
3626;DHT22;1827;50.534;8.316;2022-08-03T05:34:40;15.50;99.90
3626;DHT22;1827;50.534;8.316;2022-08-03T05:37:06;15.70;99.90
3626;DHT22;1827;50.534;8.316;2022-08-03T05:39:34;15.80;99.90
3626;DHT22;1827;50.534;8.316;2022-08-03T05:42:00;15.90;99.90
3626;DHT22;1827;50.534;8.316;2022-08-03T05:44:26;16.10;99.90
3626;DHT22;1827;50.534;8.316;2022-08-03T05:46:52;16.50;99.90
3626;DHT22;1827;50.534;8.316;2022-08-03T05:49:19;16.90;99.90
3626;DHT22;1827;50.534;8.316;2022-08-03T05:51:44;17.30;99.90
3626;DHT22;1827;50.534;8.316;2022-08-03T05:54:10;17.70;99.90
3626;DHT22;1827;50.534;8.316;2022-08-03T05:56:36;17.90;99.90
3626;DHT22;1827;50.534;8.316;2022-08-03T05:59:02;18.40;99.90
3626;DHT22;1827;50.534;8.316;2022-08-03T06:01:28;18.50;99.90
3626;DHT22;1827;50.534;8.316;2022-08-03T06:03:56;18.70;99.90
3626;DHT22;1827;50.534;8.316;2022-08-03T06:06:22;18.90;99.90
3626;DHT22;1827;50.534;8.316;2022-08-03T06:08:48;19.20;99.90
3626;DHT22;1827;50.534;8.316;2022-08-03T06:11:14;19.20;99.90
3626;DHT22;1827;50.534;8.316;2022-08-03T06:13:41;18.90;99.90
3626;DHT22;1827;50.534;8.316;2022-08-03T06:16:07;19.20;99.90
3626;DHT22;1827;50.534;8.316;2022-08-03T06:18:33;19.70;99.90
3626;DHT22;1827;50.534;8.316;2022-08-03T06:20:58;20.10;99.90
3626;DHT22;1827;50.534;8.316;2022-08-03T06:23:24;20.60;99.90
3626;DHT22;1827;50.534;8.316;2022-08-03T06:25:50;20.70;99.90
3626;DHT22;1827;50.534;8.316;2022-08-03T06:28:15;20.90;99.90
3626;DHT22;1827;50.534;8.316;2022-08-03T06:30:43;20.80;99.90
3626;DHT22;1827;50.534;8.316;2022-08-03T06:33:09;20.50;99.90
3626;DHT22;1827;50.534;8.316;2022-08-03T06:35:35;21.10;99.90
3626;DHT22;1827;50.534;8.316;2022-08-03T06:38:00;21.60;99.90
3626;DHT22;1827;50.534;8.316;2022-08-03T06:40:27;22.10;99.90
3626;DHT22;1827;50.534;8.316;2022-08-03T06:42:59;22.60;99.90
3626;DHT22;1827;50.534;8.316;2022-08-03T06:45:25;22.60;99.90
3626;DHT22;1827;50.534;8.316;2022-08-03T06:48:02;22.20;99.90
3626;DHT22;1827;50.534;8.316;2022-08-03T06:50:28;21.80;99.90
3626;DHT22;1827;50.534;8.316;2022-08-03T06:52:54;22.30;99.90
3626;DHT22;1827;50.534;8.316;2022-08-03T06:55:20;22.20;99.90
3626;DHT22;1827;50.534;8.316;2022-08-03T06:57:46;23.10;99.90
3626;DHT22;1827;50.534;8.316;2022-08-03T07:00:12;23.30;99.90
3626;DHT22;1827;50.534;8.316;2022-08-03T07:02:39;23.00;99.90
3626;DHT22;1827;50.534;8.316;2022-08-03T07:05:06;22.90;99.90
3626;DHT22;1827;50.534;8.316;2022-08-03T07:07:32;23.50;99.90
3626;DHT22;1827;50.534;8.316;2022-08-03T07:09:57;24.00;99.90
3626;DHT22;1827;50.534;8.316;2022-08-03T07:12:24;24.60;99.90
3626;DHT22;1827;50.534;8.316;2022-08-03T07:14:50;25.20;99.90
3626;DHT22;1827;50.534;8.316;2022-08-03T07:17:16;25.40;99.90
3626;DHT22;1827;50.534;8.316;2022-08-03T07:19:41;25.90;99.90
3626;DHT22;1827;50.534;8.316;2022-08-03T07:22:08;25.90;99.90
3626;DHT22;1827;50.534;8.316;2022-08-03T07:24:33;26.30;99.90
3626;DHT22;1827;50.534;8.316;2022-08-03T07:26:59;26.70;99.90
3626;DHT22;1827;50.534;8.316;2022-08-03T07:29:25;26.80;99.90
3626;DHT22;1827;50.534;8.316;2022-08-03T07:31:51;27.00;99.90
3626;DHT22;1827;50.534;8.316;2022-08-03T07:34:17;27.30;99.90
3626;DHT22;1827;50.534;8.316;2022-08-03T07:36:42;27.90;99.90
3626;DHT22;1827;50.534;8.316;2022-08-03T07:39:08;27.60;99.90
3626;DHT22;1827;50.534;8.316;2022-08-03T07:41:33;27.20;99.90
3626;DHT22;1827;50.534;8.316;2022-08-03T07:43:59;27.20;99.90
3626;DHT22;1827;50.534;8.316;2022-08-03T07:46:25;26.80;99.90
3626;DHT22;1827;50.534;8.316;2022-08-03T07:48:50;27.30;99.90
3626;DHT22;1827;50.534;8.316;2022-08-03T07:51:17;26.70;99.90
3626;DHT22;1827;50.534;8.316;2022-08-03T07:53:42;27.20;99.90
3626;DHT22;1827;50.534;8.316;2022-08-03T07:56:08;27.60;99.90
3626;DHT22;1827;50.534;8.316;2022-08-03T07:58:35;28.00;99.90
3626;DHT22;1827;50.534;8.316;2022-08-03T08:01:00;28.10;99.90
3626;DHT22;1827;50.534;8.316;2022-08-03T08:03:26;28.70;99.90
3626;DHT22;1827;50.534;8.316;2022-08-03T08:05:52;29.00;99.90
3626;DHT22;1827;50.534;8.316;2022-08-03T08:08:18;29.30;99.90
3626;DHT22;1827;50.534;8.316;2022-08-03T08:10:45;29.40;99.90
3626;DHT22;1827;50.534;8.316;2022-08-03T08:13:11;29.20;99.90
3626;DHT22;1827;50.534;8.316;2022-08-03T08:15:36;30.10;99.90
3626;DHT22;1827;50.534;8.316;2022-08-03T08:18:02;30.40;99.90
3626;DHT22;1827;50.534;8.316;2022-08-03T08:20:30;30.40;99.90
3626;DHT22;1827;50.534;8.316;2022-08-03T08:23:02;30.00;99.90
3626;DHT22;1827;50.534;8.316;2022-08-03T08:25:30;29.60;99.90
3626;DHT22;1827;50.534;8.316;2022-08-03T08:27:56;29.90;99.90
3626;DHT22;1827;50.534;8.316;2022-08-03T08:30:22;30.40;99.90
3626;DHT22;1827;50.534;8.316;2022-08-03T08:32:49;30.60;99.90
3626;DHT22;1827;50.534;8.316;2022-08-03T08:35:16;31.00;99.90
3626;DHT22;1827;50.534;8.316;2022-08-03T08:37:42;31.40;99.90
3626;DHT22;1827;50.534;8.316;2022-08-03T08:40:09;31.30;99.60
3626;DHT22;1827;50.534;8.316;2022-08-03T08:42:39;31.80;98.90
3626;DHT22;1827;50.534;8.316;2022-08-03T08:45:05;31.60;99.90
3626;DHT22;1827;50.534;8.316;2022-08-03T08:47:37;31.60;98.40
3626;DHT22;1827;50.534;8.316;2022-08-03T08:50:03;31.60;99.30
3626;DHT22;1827;50.534;8.316;2022-08-03T08:52:30;31.50;98.00
3626;DHT22;1827;50.534;8.316;2022-08-03T08:55:02;32.20;99.10
3626;DHT22;1827;50.534;8.316;2022-08-03T08:57:36;31.90;98.40
3626;DHT22;1827;50.534;8.316;2022-08-03T09:00:05;31.40;99.60
3626;DHT22;1827;50.534;8.316;2022-08-03T09:02:34;32.60;96.30
3626;DHT22;1827;50.534;8.316;2022-08-03T09:05:00;33.20;96.90
3626;DHT22;1827;50.534;8.316;2022-08-03T09:07:27;32.90;96.00
3626;DHT22;1827;50.534;8.316;2022-08-03T09:09:52;33.00;93.70
3626;DHT22;1827;50.534;8.316;2022-08-03T09:12:18;32.80;94.40
3626;DHT22;1827;50.534;8.316;2022-08-03T09:14:44;33.20;91.60
3626;DHT22;1827;50.534;8.316;2022-08-03T09:17:10;33.10;92.90
3626;DHT22;1827;50.534;8.316;2022-08-03T09:19:36;33.30;91.50
3626;DHT22;1827;50.534;8.316;2022-08-03T09:24:36;32.70;90.30
3626;DHT22;1827;50.534;8.316;2022-08-03T09:27:05;32.30;87.90
3626;DHT22;1827;50.534;8.316;2022-08-03T09:29:32;32.50;90.10
3626;DHT22;1827;50.534;8.316;2022-08-03T09:32:00;33.80;88.80
3626;DHT22;1827;50.534;8.316;2022-08-03T09:34:27;33.80;88.20
3626;DHT22;1827;50.534;8.316;2022-08-03T09:36:53;34.20;80.80
3626;DHT22;1827;50.534;8.316;2022-08-03T09:39:20;32.90;83.20
3626;DHT22;1827;50.534;8.316;2022-08-03T09:41:54;33.30;84.00
3626;DHT22;1827;50.534;8.316;2022-08-03T09:44:39;33.10;86.30
3626;DHT22;1827;50.534;8.316;2022-08-03T09:47:07;32.20;82.50
3626;DHT22;1827;50.534;8.316;2022-08-03T09:49:35;32.60;82.60
3626;DHT22;1827;50.534;8.316;2022-08-03T09:52:14;32.60;80.80
3626;DHT22;1827;50.534;8.316;2022-08-03T09:54:41;32.60;82.00
3626;DHT22;1827;50.534;8.316;2022-08-03T09:57:07;32.60;80.40
3626;DHT22;1827;50.534;8.316;2022-08-03T09:59:33;33.00;82.50
3626;DHT22;1827;50.534;8.316;2022-08-03T10:01:59;33.30;81.30
3626;DHT22;1827;50.534;8.316;2022-08-03T10:04:26;33.30;81.70
3626;DHT22;1827;50.534;8.316;2022-08-03T10:07:05;33.70;77.80
3626;DHT22;1827;50.534;8.316;2022-08-03T10:09:31;33.90;78.30
3626;DHT22;1827;50.534;8.316;2022-08-03T10:12:06;33.50;78.60
3626;DHT22;1827;50.534;8.316;2022-08-03T10:14:32;34.00;79.80
3626;DHT22;1827;50.534;8.316;2022-08-03T10:16:59;33.90;79.90
3626;DHT22;1827;50.534;8.316;2022-08-03T10:19:25;34.20;80.60
3626;DHT22;1827;50.534;8.316;2022-08-03T10:22:18;34.00;78.00
3626;DHT22;1827;50.534;8.316;2022-08-03T10:25:01;33.80;74.70
3626;DHT22;1827;50.534;8.316;2022-08-03T10:27:33;34.30;80.80
3626;DHT22;1827;50.534;8.316;2022-08-03T10:30:01;34.00;73.10
3626;DHT22;1827;50.534;8.316;2022-08-03T10:32:53;34.20;73.40
3626;DHT22;1827;50.534;8.316;2022-08-03T10:35:23;34.90;72.00
3626;DHT22;1827;50.534;8.316;2022-08-03T10:37:54;35.10;72.80
3626;DHT22;1827;50.534;8.316;2022-08-03T10:40:21;34.80;71.20
3626;DHT22;1827;50.534;8.316;2022-08-03T10:42:50;35.10;68.00
3626;DHT22;1827;50.534;8.316;2022-08-03T10:45:19;34.70;71.30
3626;DHT22;1827;50.534;8.316;2022-08-03T10:47:47;34.70;69.10
3626;DHT22;1827;50.534;8.316;2022-08-03T10:50:13;34.80;69.40
3626;DHT22;1827;50.534;8.316;2022-08-03T10:52:58;34.90;74.60
3626;DHT22;1827;50.534;8.316;2022-08-03T10:55:43;35.90;72.50
3626;DHT22;1827;50.534;8.316;2022-08-03T11:01:07;35.00;64.90
3626;DHT22;1827;50.534;8.316;2022-08-03T11:06:26;35.10;66.70
3626;DHT22;1827;50.534;8.316;2022-08-03T11:09:13;35.80;68.30
3626;DHT22;1827;50.534;8.316;2022-08-03T11:11:42;35.70;64.10
3626;DHT22;1827;50.534;8.316;2022-08-03T11:14:16;35.30;67.90
3626;DHT22;1827;50.534;8.316;2022-08-03T11:16:46;35.90;62.40
3626;DHT22;1827;50.534;8.316;2022-08-03T11:19:15;35.70;62.20
3626;DHT22;1827;50.534;8.316;2022-08-03T11:21:51;35.60;61.00
3626;DHT22;1827;50.534;8.316;2022-08-03T11:37:36;36.30;57.20
3626;DHT22;1827;50.534;8.316;2022-08-03T11:46:09;36.70;58.90
3626;DHT22;1827;50.534;8.316;2022-08-03T11:48:47;36.70;58.10
3626;DHT22;1827;50.534;8.316;2022-08-03T11:51:25;36.50;57.80
3626;DHT22;1827;50.534;8.316;2022-08-03T11:53:52;36.60;59.20
3626;DHT22;1827;50.534;8.316;2022-08-03T11:56:18;36.40;56.80
3626;DHT22;1827;50.534;8.316;2022-08-03T11:58:49;36.80;57.40
3626;DHT22;1827;50.534;8.316;2022-08-03T12:01:15;36.30;56.10
3626;DHT22;1827;50.534;8.316;2022-08-03T12:03:43;36.00;57.50
3626;DHT22;1827;50.534;8.316;2022-08-03T12:06:11;37.00;60.10
3626;DHT22;1827;50.534;8.316;2022-08-03T12:08:38;37.20;56.90
3626;DHT22;1827;50.534;8.316;2022-08-03T12:11:06;37.00;58.20
3626;DHT22;1827;50.534;8.316;2022-08-03T12:13:42;36.20;59.80
3626;DHT22;1827;50.534;8.316;2022-08-03T12:16:08;36.40;59.80
3626;DHT22;1827;50.534;8.316;2022-08-03T12:18:34;35.90;54.90
3626;DHT22;1827;50.534;8.316;2022-08-03T12:21:06;35.60;59.80
3626;DHT22;1827;50.534;8.316;2022-08-03T12:23:34;36.40;57.40
3626;DHT22;1827;50.534;8.316;2022-08-03T12:26:04;37.50;53.30
3626;DHT22;1827;50.534;8.316;2022-08-03T12:28:31;37.60;52.90
3626;DHT22;1827;50.534;8.316;2022-08-03T12:31:04;37.50;56.70
3626;DHT22;1827;50.534;8.316;2022-08-03T12:33:48;37.90;52.70
3626;DHT22;1827;50.534;8.316;2022-08-03T12:36:18;38.00;55.90
3626;DHT22;1827;50.534;8.316;2022-08-03T12:39:03;38.00;54.30
3626;DHT22;1827;50.534;8.316;2022-08-03T12:44:11;37.20;51.90
3626;DHT22;1827;50.534;8.316;2022-08-03T12:46:39;38.30;49.80
3626;DHT22;1827;50.534;8.316;2022-08-03T12:49:09;38.50;50.00
3626;DHT22;1827;50.534;8.316;2022-08-03T12:54:22;38.10;51.30
3626;DHT22;1827;50.534;8.316;2022-08-03T12:57:03;38.20;50.40
3626;DHT22;1827;50.534;8.316;2022-08-03T12:59:32;37.20;49.00
3626;DHT22;1827;50.534;8.316;2022-08-03T13:01:58;38.20;52.70
3626;DHT22;1827;50.534;8.316;2022-08-03T13:04:33;38.70;51.50
3626;DHT22;1827;50.534;8.316;2022-08-03T13:07:04;38.60;50.50
3626;DHT22;1827;50.534;8.316;2022-08-03T13:12:08;38.80;48.50
3626;DHT22;1827;50.534;8.316;2022-08-03T13:14:34;36.50;46.50
3626;DHT22;1827;50.534;8.316;2022-08-03T13:17:00;37.00;48.00
3626;DHT22;1827;50.534;8.316;2022-08-03T13:19:26;38.00;48.80
3626;DHT22;1827;50.534;8.316;2022-08-03T13:21:52;38.70;48.40
3626;DHT22;1827;50.534;8.316;2022-08-03T13:24:18;38.30;48.50
3626;DHT22;1827;50.534;8.316;2022-08-03T13:26:44;37.90;52.30
3626;DHT22;1827;50.534;8.316;2022-08-03T13:29:10;38.20;45.20
3626;DHT22;1827;50.534;8.316;2022-08-03T13:31:35;37.20;49.20
3626;DHT22;1827;50.534;8.316;2022-08-03T13:34:01;38.10;50.10
3626;DHT22;1827;50.534;8.316;2022-08-03T13:36:27;37.40;48.30
3626;DHT22;1827;50.534;8.316;2022-08-03T13:38:52;38.30;47.80
3626;DHT22;1827;50.534;8.316;2022-08-03T13:41:18;38.30;47.00
3626;DHT22;1827;50.534;8.316;2022-08-03T13:43:44;37.90;47.40
3626;DHT22;1827;50.534;8.316;2022-08-03T13:46:09;37.80;46.40
3626;DHT22;1827;50.534;8.316;2022-08-03T13:48:35;38.40;43.30
3626;DHT22;1827;50.534;8.316;2022-08-03T13:51:01;38.40;42.60
3626;DHT22;1827;50.534;8.316;2022-08-03T13:53:27;36.70;43.80
3626;DHT22;1827;50.534;8.316;2022-08-03T13:55:52;35.70;44.40
3626;DHT22;1827;50.534;8.316;2022-08-03T13:58:18;36.90;47.90
3626;DHT22;1827;50.534;8.316;2022-08-03T14:00:44;37.30;45.70
3626;DHT22;1827;50.534;8.316;2022-08-03T14:03:09;37.20;45.20
3626;DHT22;1827;50.534;8.316;2022-08-03T14:05:35;37.40;45.90
3626;DHT22;1827;50.534;8.316;2022-08-03T14:08:03;37.40;44.60
3626;DHT22;1827;50.534;8.316;2022-08-03T14:10:35;37.60;43.10
3626;DHT22;1827;50.534;8.316;2022-08-03T14:13:02;38.10;44.20
3626;DHT22;1827;50.534;8.316;2022-08-03T14:15:28;38.40;41.10
3626;DHT22;1827;50.534;8.316;2022-08-03T14:17:54;38.30;43.30
3626;DHT22;1827;50.534;8.316;2022-08-03T14:20:20;38.10;44.60
3626;DHT22;1827;50.534;8.316;2022-08-03T14:22:46;38.40;44.60
3626;DHT22;1827;50.534;8.316;2022-08-03T14:25:12;37.60;48.00
3626;DHT22;1827;50.534;8.316;2022-08-03T14:27:37;38.50;46.10
3626;DHT22;1827;50.534;8.316;2022-08-03T14:30:03;38.60;45.00
3626;DHT22;1827;50.534;8.316;2022-08-03T14:32:29;38.60;43.10
3626;DHT22;1827;50.534;8.316;2022-08-03T14:34:55;38.50;44.40
3626;DHT22;1827;50.534;8.316;2022-08-03T14:37:21;38.80;46.60
3626;DHT22;1827;50.534;8.316;2022-08-03T14:39:46;38.60;42.70
3626;DHT22;1827;50.534;8.316;2022-08-03T14:42:13;38.60;42.10
3626;DHT22;1827;50.534;8.316;2022-08-03T14:44:40;38.10;43.40
3626;DHT22;1827;50.534;8.316;2022-08-03T14:47:05;38.50;42.60
3626;DHT22;1827;50.534;8.316;2022-08-03T14:49:31;36.80;39.00
3626;DHT22;1827;50.534;8.316;2022-08-03T14:51:57;37.60;43.30
3626;DHT22;1827;50.534;8.316;2022-08-03T14:54:22;38.30;42.50
3626;DHT22;1827;50.534;8.316;2022-08-03T14:56:49;38.40;38.70
3626;DHT22;1827;50.534;8.316;2022-08-03T14:59:15;38.50;39.40
3626;DHT22;1827;50.534;8.316;2022-08-03T15:01:41;38.10;40.00
3626;DHT22;1827;50.534;8.316;2022-08-03T15:04:07;38.30;39.00
3626;DHT22;1827;50.534;8.316;2022-08-03T15:06:32;38.10;40.20
3626;DHT22;1827;50.534;8.316;2022-08-03T15:08:58;36.00;39.90
3626;DHT22;1827;50.534;8.316;2022-08-03T15:11:24;36.70;42.60
3626;DHT22;1827;50.534;8.316;2022-08-03T15:13:49;36.70;43.10
3626;DHT22;1827;50.534;8.316;2022-08-03T15:16:15;36.60;41.60
3626;DHT22;1827;50.534;8.316;2022-08-03T15:18:40;36.90;39.90
3626;DHT22;1827;50.534;8.316;2022-08-03T15:21:06;37.10;39.90
3626;DHT22;1827;50.534;8.316;2022-08-03T15:23:32;37.20;39.80
3626;DHT22;1827;50.534;8.316;2022-08-03T15:25:57;36.80;39.80
3626;DHT22;1827;50.534;8.316;2022-08-03T15:28:23;36.90;39.40
3626;DHT22;1827;50.534;8.316;2022-08-03T15:30:51;37.10;41.30
3626;DHT22;1827;50.534;8.316;2022-08-03T15:33:17;37.40;38.80
3626;DHT22;1827;50.534;8.316;2022-08-03T15:35:43;37.00;38.10
3626;DHT22;1827;50.534;8.316;2022-08-03T15:38:10;36.90;37.70
3626;DHT22;1827;50.534;8.316;2022-08-03T15:40:36;35.90;38.30
3626;DHT22;1827;50.534;8.316;2022-08-03T15:43:02;36.00;41.00
3626;DHT22;1827;50.534;8.316;2022-08-03T15:45:27;36.60;40.50
3626;DHT22;1827;50.534;8.316;2022-08-03T15:47:53;36.50;39.50
3626;DHT22;1827;50.534;8.316;2022-08-03T15:50:19;36.70;41.20
3626;DHT22;1827;50.534;8.316;2022-08-03T15:52:45;36.30;37.70
3626;DHT22;1827;50.534;8.316;2022-08-03T15:55:11;35.30;39.70
3626;DHT22;1827;50.534;8.316;2022-08-03T15:57:36;35.50;38.30
3626;DHT22;1827;50.534;8.316;2022-08-03T16:00:06;35.80;39.90
3626;DHT22;1827;50.534;8.316;2022-08-03T16:02:35;35.70;37.40
3626;DHT22;1827;50.534;8.316;2022-08-03T16:05:01;35.40;39.40
3626;DHT22;1827;50.534;8.316;2022-08-03T16:07:27;35.40;42.50
3626;DHT22;1827;50.534;8.316;2022-08-03T16:10:13;35.10;42.10
3626;DHT22;1827;50.534;8.316;2022-08-03T16:12:39;35.20;42.80
3626;DHT22;1827;50.534;8.316;2022-08-03T16:15:06;34.40;40.20
3626;DHT22;1827;50.534;8.316;2022-08-03T16:17:32;33.70;40.90
3626;DHT22;1827;50.534;8.316;2022-08-03T16:19:57;34.20;41.50
3626;DHT22;1827;50.534;8.316;2022-08-03T16:22:23;34.40;40.40
3626;DHT22;1827;50.534;8.316;2022-08-03T16:24:53;34.30;41.10
3626;DHT22;1827;50.534;8.316;2022-08-03T16:27:20;34.40;40.80
3626;DHT22;1827;50.534;8.316;2022-08-03T16:29:46;34.30;42.10
3626;DHT22;1827;50.534;8.316;2022-08-03T16:32:11;34.30;41.90
3626;DHT22;1827;50.534;8.316;2022-08-03T16:34:38;34.20;41.90
3626;DHT22;1827;50.534;8.316;2022-08-03T16:37:04;34.20;40.40
3626;DHT22;1827;50.534;8.316;2022-08-03T16:39:31;34.20;42.50
3626;DHT22;1827;50.534;8.316;2022-08-03T16:41:57;34.20;41.20
3626;DHT22;1827;50.534;8.316;2022-08-03T16:44:23;33.70;38.80
3626;DHT22;1827;50.534;8.316;2022-08-03T16:46:49;33.30;40.80
3626;DHT22;1827;50.534;8.316;2022-08-03T16:49:14;32.90;40.60